Time;durP1;ratioP1;P1;durP2;ratioP2;P2;SDS_P1;SDS_P2;PMS_P1;PMS_P2;Temp;Humidity;BMP_temperature;BMP_pressure;BME280_temperature;BME280_humidity;BME280_pressure;Samples;Min_cycle;Max_cycle;Signal;HPM_P1;HPM_P2
2022/12/27 00:01:37;;;;;;;;;;;;;;;1.83;100.00;102025.84;5271275;28;19977;-67
2022/12/27 00:04:08;;;;;;;;;;;;;;;1.83;100.00;102023.19;5271946;28;20006;-66
2022/12/27 00:06:40;;;;;;;;;;;;;;;1.83;100.00;102026.69;5275501;28;19962;-66
2022/12/27 00:09:11;;;;;;;;;;;;;;;1.83;100.00;102041.63;5273869;28;20313;-67
2022/12/27 00:11:43;;;;;;;;;;;;;;;1.81;100.00;102035.53;5277764;28;19946;-67
2022/12/27 00:14:14;;;;;;;;;;;;;;;1.82;100.00;102039.88;5262160;28;20401;-66
2022/12/27 00:16:45;;;;;;;;;;;;;;;1.82;100.00;102038.09;5274823;28;20362;-66
2022/12/27 00:19:16;;;;;;;;;;;;;;;1.83;100.00;102041.63;5273333;28;19932;-66
2022/12/27 00:21:47;;;;;;;;;;;;;;;1.83;100.00;102041.63;5282384;28;19966;-66
2022/12/27 00:24:19;;;;;;;;;;;;;;;1.83;100.00;102042.47;5285387;28;19924;-66
2022/12/27 00:26:50;;;;;;;;;;;;;;;1.86;100.00;102037.16;5282628;28;19947;-66
2022/12/27 00:29:21;;;;;;;;;;;;;;;1.87;100.00;102043.28;5287141;28;20007;-66
2022/12/27 00:31:52;;;;;;;;;;;;;;;1.87;100.00;102045.91;5288896;28;19920;-66
2022/12/27 00:34:23;;;;;;;;;;;;;;;1.88;100.00;102035.38;5284133;28;19997;-66
2022/12/27 00:36:55;;;;;;;;;;;;;;;1.86;100.00;102037.16;5283210;28;19927;-67
2022/12/27 00:39:26;;;;;;;;;;;;;;;1.88;100.00;102047.63;5285553;28;19924;-66
2022/12/27 00:41:57;;;;;;;;;;;;;;;1.88;100.00;102043.25;5289798;28;20370;-66
2022/12/27 00:44:28;;;;;;;;;;;;;;;1.89;100.00;102036.22;5298639;28;19976;-66
2022/12/27 00:46:59;;;;;;;;;;;;;;;1.89;100.00;102041.47;5287955;28;19916;-66
2022/12/27 00:49:30;;;;;;;;;;;;;;;1.90;100.00;102043.22;5284824;28;19942;-66
2022/12/27 00:52:02;;;;;;;;;;;;;;;1.89;100.00;102050.25;5288546;28;20407;-66
2022/12/27 00:54:33;;;;;;;;;;;;;;;1.90;100.00;102046.72;5295828;28;19970;-66
2022/12/27 00:57:04;;;;;;;;;;;;;;;1.91;100.00;102055.47;5283642;28;19932;-66
2022/12/27 00:59:36;;;;;;;;;;;;;;;1.91;100.00;102052.84;5292013;28;19916;-66
2022/12/27 01:02:07;;;;;;;;;;;;;;;1.93;100.00;102064.19;5280330;28;19924;-66
2022/12/27 01:04:38;;;;;;;;;;;;;;;1.94;100.00;102079.09;5284887;28;19931;-66
2022/12/27 01:07:09;;;;;;;;;;;;;;;1.93;100.00;102066.84;5290478;28;19924;-66
2022/12/27 01:09:40;;;;;;;;;;;;;;;1.92;100.00;102076.50;5289934;28;20373;-66
2022/12/27 01:12:11;;;;;;;;;;;;;;;1.92;100.00;102079.13;5285396;28;19916;-66
2022/12/27 01:14:43;;;;;;;;;;;;;;;1.92;100.00;102081.75;5288546;28;20007;-66
2022/12/27 01:17:14;;;;;;;;;;;;;;;1.91;100.00;102077.38;5284914;28;20530;-66
2022/12/27 01:19:45;;;;;;;;;;;;;;;1.91;100.00;102081.78;5287396;28;19920;-66
2022/12/27 01:22:16;;;;;;;;;;;;;;;1.90;100.00;102086.19;5286115;28;19920;-66
2022/12/27 01:24:47;;;;;;;;;;;;;;;1.89;100.00;102084.44;5286453;28;19959;-66
2022/12/27 01:27:19;;;;;;;;;;;;;;;1.89;100.00;102080.97;5288764;28;20301;-67
2022/12/27 01:29:50;;;;;;;;;;;;;;;1.89;100.00;102092.34;5288119;28;19928;-67
2022/12/27 01:32:21;;;;;;;;;;;;;;;1.90;100.00;102090.59;5284160;28;20302;-66
2022/12/27 01:34:52;;;;;;;;;;;;;;;1.89;100.00;102092.34;5280836;28;19921;-66
2022/12/27 01:37:23;;;;;;;;;;;;;;;1.89;100.00;102102.88;5285526;28;19920;-66
2022/12/27 01:39:55;;;;;;;;;;;;;;;1.91;100.00;102100.22;5285122;28;19992;-67
2022/12/27 01:45:21;;;;;;;;;;;;;;;1.90;100.00;102094.09;5282260;28;19920;-66
2022/12/27 01:48:03;;;;;;;;;;;;;;;1.92;100.00;102100.19;5285196;28;19920;-66
2022/12/27 01:50:37;;;;;;;;;;;;;;;1.91;100.00;102095.81;5295017;28;19926;-66
2022/12/27 01:53:08;;;;;;;;;;;;;;;1.93;100.00;102103.69;5287255;28;19924;-66
2022/12/27 01:55:58;;;;;;;;;;;;;;;1.92;100.00;102107.22;5286149;28;20290;-66
2022/12/27 01:58:34;;;;;;;;;;;;;;;1.94;100.00;102118.59;5285926;28;19926;-66
2022/12/27 02:01:08;;;;;;;;;;;;;;;1.94;100.00;102118.59;5290061;28;20271;-66
2022/12/27 02:03:41;;;;;;;;;;;;;;;1.96;100.00;102132.59;5291492;28;19920;-66
2022/12/27 02:06:13;;;;;;;;;;;;;;;1.95;100.00;102134.31;5287046;28;20003;-66
2022/12/27 02:08:51;;;;;;;;;;;;;;;1.95;100.00;102131.69;5286729;28;19926;-66
2022/12/27 02:11:49;;;;;;;;;;;;;;;1.96;100.00;102122.91;5291087;28;19920;-66
2022/12/27 02:14:31;;;;;;;;;;;;;;;1.97;100.00;102123.78;5285771;28;19924;-66
2022/12/27 02:17:03;;;;;;;;;;;;;;;2.00;100.00;102136.88;5278693;28;19963;-66
2022/12/27 02:19:41;;;;;;;;;;;;;;;2.01;100.00;102129.84;5290519;28;19955;-66
2022/12/27 02:22:18;;;;;;;;;;;;;;;2.01;100.00;102129.84;5291032;28;20386;-66
2022/12/27 02:24:55;;;;;;;;;;;;;;;2.03;100.00;102128.06;5282649;28;20310;-66
2022/12/27 02:27:28;;;;;;;;;;;;;;;2.02;100.00;102129.81;5291056;28;19916;-66
2022/12/27 02:30:06;;;;;;;;;;;;;;;2.04;100.00;102124.53;5290077;28;19920;-66
2022/12/27 02:32:50;;;;;;;;;;;;;;;2.05;100.00;102134.16;5298742;28;19927;-66
2022/12/27 02:35:21;;;;;;;;;;;;;;;2.06;100.00;102136.75;5284755;28;19916;-66
2022/12/27 02:38:03;;;;;;;;;;;;;;;2.05;100.00;102137.66;5291668;28;19973;-66
2022/12/27 02:55:32;;;;;;;;;;;;;;;2.10;100.00;102140.19;5285785;28;19967;-67
2022/12/27 02:58:29;;;;;;;;;;;;;;;2.11;100.00;102128.75;5288238;28;20408;-67
2022/12/27 03:04:40;;;;;;;;;;;;;;;2.11;100.00;102134.91;5217900;28;19944;-66
2022/12/27 03:07:11;;;;;;;;;;;;;;;2.14;100.00;102121.66;5218046;28;20411;-66
2022/12/27 03:16:02;;;;;;;;;;;;;;;2.19;100.00;102131.22;5284071;28;19923;-66
2022/12/27 03:18:43;;;;;;;;;;;;;;;2.20;100.00;102133.84;5292099;28;19916;-67
2022/12/27 03:27:16;;;;;;;;;;;;;;;2.22;100.00;102145.19;5251043;28;20265;-67
2022/12/27 03:33:12;;;;;;;;;;;;;;;2.24;100.00;102163.59;5289253;28;20366;-66
2022/12/27 03:38:01;;;;;;;;;;;;;;;2.27;100.00;102160.91;5237917;28;19920;-66
2022/12/27 03:39:05;;;;;;;;;;;;;;;2.27;100.00;102169.69;5285183;28;19951;-66
2022/12/27 03:44:32;;;;;;;;;;;;;;;2.28;100.00;102167.91;5281948;28;19924;-66
2022/12/27 03:47:15;;;;;;;;;;;;;;;2.26;100.00;102180.25;5283983;28;19920;-67
2022/12/27 03:49:46;;;;;;;;;;;;;;;2.26;100.00;102169.72;5291624;28;19956;-66
2022/12/27 03:52:27;;;;;;;;;;;;;;;2.25;100.00;102178.53;5280783;28;20383;-67
2022/12/27 03:55:00;;;;;;;;;;;;;;;2.23;100.00;102182.94;5287796;28;19932;-67
2022/12/27 03:57:31;;;;;;;;;;;;;;;2.22;100.00;102182.06;5285626;28;19916;-67
2022/12/27 04:00:03;;;;;;;;;;;;;;;2.22;100.00;102186.47;5285336;28;19990;-67
2022/12/27 04:02:34;;;;;;;;;;;;;;;2.22;100.00;102189.09;5279546;28;19928;-67
2022/12/27 04:05:06;;;;;;;;;;;;;;;2.20;100.00;102183.84;5281314;28;20390;-67
2022/12/27 04:07:37;;;;;;;;;;;;;;;2.20;100.00;102197.03;5276457;28;20054;-66
2022/12/27 04:35:40;;;;;;;;;;;;;;;2.12;100.00;102177.88;5279648;28;20310;-67
2022/12/27 04:38:11;;;;;;;;;;;;;;;2.10;100.00;102193.72;5280575;28;19920;-66
2022/12/27 04:55:22;;;;;;;;;;;;;;;2.11;100.00;102203.34;5289306;28;20042;-67
2022/12/27 04:57:54;;;;;;;;;;;;;;;2.13;100.00;102206.81;5297787;28;19920;-68
2022/12/27 05:03:18;;;;;;;;;;;;;;;2.18;100.00;102211.13;5287832;28;19928;-67
2022/12/27 05:05:50;;;;;;;;;;;;;;;2.16;100.00;102214.66;5292559;28;20468;-67
2022/12/27 05:14:02;;;;;;;;;;;;;;;2.14;100.00;102216.44;5285652;28;19924;-65
2022/12/27 05:16:38;;;;;;;;;;;;;;;2.14;100.00;102211.19;5290800;28;19916;-65
2022/12/27 05:19:10;;;;;;;;;;;;;;;2.14;100.00;102208.53;5282112;28;20385;-65
2022/12/27 05:27:42;;;;;;;;;;;;;;;2.21;100.00;102233.00;5211919;28;19921;-65
2022/12/27 05:30:14;;;;;;;;;;;;;;;2.26;100.00;102232.91;5214633;28;19921;-65
2022/12/27 05:32:45;;;;;;;;;;;;;;;2.30;100.00;102237.22;5251765;28;20022;-65
2022/12/27 05:35:16;;;;;;;;;;;;;;;2.34;100.00;102245.03;5285141;28;19927;-65
2022/12/27 05:37:47;;;;;;;;;;;;;;;2.35;100.00;102243.28;5286862;28;19989;-65
2022/12/27 05:40:18;;;;;;;;;;;;;;;2.36;100.00;102252.91;5283367;28;19921;-65
2022/12/27 05:42:50;;;;;;;;;;;;;;;2.37;100.00;102254.63;5283467;28;20409;-65
2022/12/27 05:45:21;;;;;;;;;;;;;;;2.39;100.00;102259.88;5279773;28;20194;-65
2022/12/27 05:47:52;;;;;;;;;;;;;;;2.38;100.00;102256.38;5286763;28;19920;-65
2022/12/27 05:50:23;;;;;;;;;;;;;;;2.39;100.00;102260.75;5289764;28;20019;-65
2022/12/27 05:52:55;;;;;;;;;;;;;;;2.38;100.00;102260.75;5282018;28;19927;-65
2022/12/27 05:55:26;;;;;;;;;;;;;;;2.36;100.00;102274.00;5287542;28;19920;-65
2022/12/27 05:57:57;;;;;;;;;;;;;;;2.34;100.00;102270.53;5289166;28;19916;-65
2022/12/27 06:00:28;;;;;;;;;;;;;;;2.32;100.00;102275.81;5283594;28;19928;-65
2022/12/27 06:03:00;;;;;;;;;;;;;;;2.33;100.00;102284.56;5285936;28;20223;-65
2022/12/27 06:05:32;;;;;;;;;;;;;;;2.31;100.00;102291.63;5282004;28;19943;-65
2022/12/27 06:08:03;;;;;;;;;;;;;;;2.30;100.00;102284.63;5286375;28;19920;-66
2022/12/27 06:10:34;;;;;;;;;;;;;;;2.31;100.00;102276.69;5287430;28;20412;-66
2022/12/27 06:13:05;;;;;;;;;;;;;;;2.32;100.00;102280.19;5290848;28;20689;-66
2022/12/27 06:15:37;;;;;;;;;;;;;;;2.28;100.00;102281.16;5288894;28;19928;-66
2022/12/27 06:18:08;;;;;;;;;;;;;;;2.29;100.00;102288.16;5287144;28;19930;-66
2022/12/27 06:20:39;;;;;;;;;;;;;;;2.29;100.00;102286.38;5280043;28;19931;-66
2022/12/27 06:23:10;;;;;;;;;;;;;;;2.27;100.00;102289.97;5285200;28;19997;-66
2022/12/27 06:25:41;;;;;;;;;;;;;;;2.26;100.00;102282.94;5288809;28;19926;-66
2022/12/27 06:28:12;;;;;;;;;;;;;;;2.25;100.00;102276.81;5286963;28;19920;-66
2022/12/27 06:30:44;;;;;;;;;;;;;;;2.24;100.00;102279.47;5283835;28;20030;-66
2022/12/27 06:33:15;;;;;;;;;;;;;;;2.28;100.00;102286.41;5282739;28;20387;-66
2022/12/27 06:35:46;;;;;;;;;;;;;;;2.26;100.00;102282.94;5274280;28;19972;-66
2022/12/27 06:38:17;;;;;;;;;;;;;;;2.22;100.00;102281.25;5279231;28;20425;-66
2022/12/27 06:40:48;;;;;;;;;;;;;;;2.19;100.00;102282.19;5290652;28;20390;-66
2022/12/27 06:43:20;;;;;;;;;;;;;;;2.15;100.00;102278.75;5285489;28;20366;-66
2022/12/27 06:45:58;;;;;;;;;;;;;;;2.12;100.00;102273.53;5279915;28;20018;-66
2022/12/27 06:48:29;;;;;;;;;;;;;;;2.11;100.00;102278.81;5282374;28;20345;-66
2022/12/27 06:51:07;;;;;;;;;;;;;;;2.08;100.00;102279.75;5287978;28;19920;-66
2022/12/27 06:53:38;;;;;;;;;;;;;;;2.07;100.00;102280.66;5283704;28;20389;-67
2022/12/27 06:56:11;;;;;;;;;;;;;;;2.05;100.00;102282.47;5290608;28;19928;-66
2022/12/27 06:58:42;;;;;;;;;;;;;;;2.02;100.00;102274.59;5285583;28;19916;-66
2022/12/27 07:01:18;;;;;;;;;;;;;;;1.98;100.00;102277.34;5286934;28;19920;-66
2022/12/27 07:03:50;;;;;;;;;;;;;;;1.94;100.00;102280.00;5284844;28;20401;-66
2022/12/27 07:06:22;;;;;;;;;;;;;;;1.91;100.00;102287.94;5287845;28;20049;-66
2022/12/27 07:08:54;;;;;;;;;;;;;;;1.87;100.00;102286.25;5292101;28;20421;-66
2022/12/27 07:11:25;;;;;;;;;;;;;;;1.84;100.00;102288.97;5289471;28;19988;-66
2022/12/27 07:13:56;;;;;;;;;;;;;;;1.81;100.00;102285.50;5282736;28;19920;-66
2022/12/27 07:16:28;;;;;;;;;;;;;;;1.78;100.00;102294.31;5282944;28;19924;-66
2022/12/27 07:18:59;;;;;;;;;;;;;;;1.76;100.00;102293.47;5283471;28;19932;-66
2022/12/27 07:21:31;;;;;;;;;;;;;;;1.73;100.00;102291.75;5281189;28;19917;-66
2022/12/27 07:24:02;;;;;;;;;;;;;;;1.73;100.00;102297.03;5284704;28;19927;-66
2022/12/27 07:26:33;;;;;;;;;;;;;;;1.73;100.00;102299.66;5284068;28;20003;-66
2022/12/27 07:29:04;;;;;;;;;;;;;;;1.72;100.00;102302.31;5284047;28;20705;-66
2022/12/27 07:31:36;;;;;;;;;;;;;;;1.71;100.00;102297.94;5278975;28;19916;-66
2022/12/27 07:34:08;;;;;;;;;;;;;;;1.71;100.00;102304.06;5281375;28;19920;-66
2022/12/27 07:36:39;;;;;;;;;;;;;;;1.71;100.00;102301.44;5285658;28;19979;-66
2022/12/27 07:39:11;;;;;;;;;;;;;;;1.70;100.00;102310.22;5279726;28;19925;-66
2022/12/27 07:41:42;;;;;;;;;;;;;;;1.71;100.00;102304.06;5287400;28;19993;-66
2022/12/27 07:44:13;;;;;;;;;;;;;;;1.72;100.00;102305.78;5284444;28;19947;-66
2022/12/27 07:46:44;;;;;;;;;;;;;;;1.73;100.00;102302.28;5282928;28;19920;-67
2022/12/27 07:49:16;;;;;;;;;;;;;;;1.73;100.00;102302.28;5285352;28;20041;-66
2022/12/27 07:51:47;;;;;;;;;;;;;;;1.74;100.00;102311.91;5282487;28;20021;-66
2022/12/27 07:54:18;;;;;;;;;;;;;;;1.76;100.00;102314.50;5283810;28;19932;-66
2022/12/27 07:56:49;;;;;;;;;;;;;;;1.76;100.00;102310.13;5283599;28;19931;-66
2022/12/27 07:59:21;;;;;;;;;;;;;;;1.77;100.00;102308.38;5278051;28;19935;-66
2022/12/27 08:02:04;;;;;;;;;;;;;;;1.78;100.00;102310.09;5276511;28;19926;-66
2022/12/27 08:04:37;;;;;;;;;;;;;;;1.81;100.00;102317.94;5281731;28;19927;-66
2022/12/27 08:07:13;;;;;;;;;;;;;;;1.84;100.00;102324.91;5280095;28;19920;-66
2022/12/27 08:09:45;;;;;;;;;;;;;;;1.85;100.00;102317.00;5283443;28;19924;-66
2022/12/27 08:12:17;;;;;;;;;;;;;;;1.87;100.00;102323.09;5290774;28;19999;-66
2022/12/27 08:14:48;;;;;;;;;;;;;;;1.88;100.00;102323.97;5286755;28;20190;-66
2022/12/27 08:17:28;;;;;;;;;;;;;;;1.90;100.00;102327.47;5283349;28;19920;-66
2022/12/27 08:19:59;;;;;;;;;;;;;;;1.92;100.00;102337.06;5282419;28;19920;-66
2022/12/27 08:22:30;;;;;;;;;;;;;;;1.95;100.00;102344.03;5302128;28;20349;-66
2022/12/27 08:25:02;;;;;;;;;;;;;;;1.98;100.00;102329.97;5286347;28;19927;-66
2022/12/27 08:27:33;;;;;;;;;;;;;;;1.99;100.00;102340.44;5289209;28;20435;-67
2022/12/27 08:30:04;;;;;;;;;;;;;;;2.01;100.00;102343.06;5286991;28;19919;-67
2022/12/27 08:32:35;;;;;;;;;;;;;;;2.02;100.00;102353.56;5291612;28;19917;-67
2022/12/27 08:35:07;;;;;;;;;;;;;;;2.03;100.00;102354.44;5282600;28;19956;-67
2022/12/27 08:37:38;;;;;;;;;;;;;;;2.05;100.00;102347.38;5284034;28;20377;-67
2022/12/27 08:40:09;;;;;;;;;;;;;;;2.06;100.00;102346.50;5286837;28;19920;-67
2022/12/27 08:42:40;;;;;;;;;;;;;;;2.05;100.00;102335.09;5297041;28;19959;-67
2022/12/27 08:45:12;;;;;;;;;;;;;;;2.06;100.00;102333.34;5280648;28;19977;-67
2022/12/27 08:47:43;;;;;;;;;;;;;;;2.08;100.00;102332.41;5289511;28;19963;-67
2022/12/27 08:50:14;;;;;;;;;;;;;;;2.07;100.00;102322.78;5286271;28;20305;-67
2022/12/27 08:52:45;;;;;;;;;;;;;;;2.08;100.00;102321.88;5286580;28;19916;-67
2022/12/27 08:55:16;;;;;;;;;;;;;;;2.11;100.00;102326.19;5229423;28;1734739;-66
2022/12/27 08:57:48;;;;;;;;;;;;;;;2.12;100.00;102330.59;5287023;28;20042;-67
2022/12/27 09:00:19;;;;;;;;;;;;;;;2.15;100.00;102336.69;5291487;28;19965;-67
2022/12/27 09:02:50;;;;;;;;;;;;;;;2.18;100.00;102338.38;5292404;28;20298;-67
2022/12/27 09:05:22;;;;;;;;;;;;;;;2.19;100.00;102340.13;5287276;28;20306;-67
2022/12/27 09:07:54;;;;;;;;;;;;;;;2.21;100.00;102340.09;5291277;28;19972;-67
2022/12/27 09:10:25;;;;;;;;;;;;;;;2.23;100.00;102338.31;5285757;28;19920;-67
2022/12/27 09:12:56;;;;;;;;;;;;;;;2.26;100.00;102338.25;5298841;28;19993;-67
2022/12/27 09:15:27;;;;;;;;;;;;;;;2.27;100.00;102334.72;5290600;28;21339;-67
2022/12/27 09:17:58;;;;;;;;;;;;;;;2.29;100.00;102338.19;5294526;28;20348;-67
2022/12/27 09:20:29;;;;;;;;;;;;;;;2.30;100.00;102337.28;5288641;28;19943;-67
2022/12/27 09:23:01;;;;;;;;;;;;;;;2.32;100.00;102340.75;5281510;28;19920;-67
2022/12/27 09:25:32;;;;;;;;;;;;;;;2.35;100.00;102338.09;5292223;28;19916;-67
2022/12/27 09:28:03;;;;;;;;;;;;;;;2.37;100.00;102332.78;5282311;28;20421;-67
2022/12/27 09:30:34;;;;;;;;;;;;;;;2.39;100.00;102337.13;5284117;28;19920;-67
2022/12/27 09:33:05;;;;;;;;;;;;;;;2.42;100.00;102346.75;5294367;28;19927;-67
2022/12/27 09:35:37;;;;;;;;;;;;;;;2.45;100.00;102344.91;5288489;28;20397;-67
2022/12/27 09:38:08;;;;;;;;;;;;;;;2.49;100.00;102356.25;5291150;28;19934;-67
2022/12/27 09:40:39;;;;;;;;;;;;;;;2.52;100.00;102354.44;5282575;28;20507;-67
2022/12/27 09:43:13;;;;;;;;;;;;;;;2.55;100.00;102356.13;5282494;28;20305;-67
2022/12/27 09:45:46;;;;;;;;;;;;;;;2.60;100.00;102348.16;5281214;28;19920;-67
2022/12/27 09:48:29;;;;;;;;;;;;;;;2.64;100.00;102361.25;5293255;28;19977;-67
2022/12/27 09:51:09;;;;;;;;;;;;;;;2.67;100.00;102358.56;5284005;28;19978;-66
2022/12/27 09:53:59;;;;;;;;;;;;;;;2.72;100.00;102356.72;5289879;28;19916;-67
2022/12/27 09:56:32;;;;;;;;;;;;;;;2.77;100.00;102355.75;5287597;28;19928;-67
2022/12/27 09:59:22;;;;;;;;;;;;;;;2.82;100.00;102356.50;5280558;28;20003;-67
2022/12/27 10:01:53;;;;;;;;;;;;;;;2.86;100.00;102351.16;5283470;28;20388;-67
2022/12/27 10:04:26;;;;;;;;;;;;;;;2.91;100.00;102357.19;5289023;28;19928;-67
2022/12/27 10:07:04;;;;;;;;;;;;;;;2.96;100.00;102358.91;5287531;28;19916;-67
2022/12/27 10:09:43;;;;;;;;;;;;;;;2.99;100.00;102354.41;5282707;28;19920;-67
2022/12/27 10:12:27;;;;;;;;;;;;;;;3.05;100.00;102359.56;5268808;28;19920;-67
2022/12/27 10:15:16;;;;;;;;;;;;;;;3.09;100.00;102360.38;5282951;28;19920;-67
2022/12/27 10:17:55;;;;;;;;;;;;;;;3.13;100.00;102360.28;5286429;28;20352;-67
2022/12/27 10:20:45;;;;;;;;;;;;;;;3.19;100.00;102361.91;5295829;28;19920;-67
2022/12/27 10:23:21;;;;;;;;;;;;;;;3.25;100.00;102351.22;5284561;28;20370;-66
2022/12/27 10:25:57;;;;;;;;;;;;;;;3.31;100.00;102347.59;5286084;28;19971;-66
2022/12/27 10:28:35;;;;;;;;;;;;;;;3.33;100.00;102336.09;5297386;28;19924;-66
2022/12/27 10:31:12;;;;;;;;;;;;;;;3.38;100.00;102340.44;5292419;28;19920;-66
2022/12/27 10:33:44;;;;;;;;;;;;;;;3.42;100.00;102355.28;5287839;28;20414;-67
2022/12/27 10:36:18;;;;;;;;;;;;;;;3.46;100.00;102362.22;5283296;28;19920;-67
2022/12/27 10:38:49;;;;;;;;;;;;;;;3.50;100.00;102351.56;5293360;28;19999;-67
2022/12/27 10:41:35;;;;;;;;;;;;;;;3.56;100.00;102347.91;5280288;28;19934;-67
2022/12/27 10:44:10;;;;;;;;;;;;;;;3.61;100.00;102353.09;5293774;28;19920;-67
2022/12/27 10:46:43;;;;;;;;;;;;;;;3.64;100.00;102342.44;5285349;28;20430;-67
2022/12/27 10:49:23;;;;;;;;;;;;;;;3.65;100.00;102339.78;5293272;28;19920;-66
2022/12/27 10:51:56;;;;;;;;;;;;;;;3.69;100.00;102338.81;5292156;28;19920;-67
2022/12/27 10:54:28;;;;;;;;;;;;;;;3.75;100.00;102350.13;5285181;28;19931;-67
2022/12/27 10:57:16;;;;;;;;;;;;;;;3.81;100.00;102349.97;5284889;28;19928;-67
2022/12/27 11:00:06;;;;;;;;;;;;;;;3.87;100.00;102356.00;5294769;28;20027;-67
2022/12/27 11:02:52;;;;;;;;;;;;;;;3.93;100.00;102354.94;5286587;28;20018;-67
2022/12/27 11:05:26;;;;;;;;;;;;;;;3.97;100.00;102351.34;5291939;28;19928;-67
2022/12/27 11:07:57;;;;;;;;;;;;;;;4.00;100.00;102351.25;5287731;28;19923;-67
2022/12/27 11:10:32;;;;;;;;;;;;;;;4.05;100.00;102344.09;5286900;28;20437;-67
2022/12/27 11:13:04;;;;;;;;;;;;;;;4.12;100.00;102344.78;5296162;28;20445;-67
2022/12/27 11:15:37;;;;;;;;;;;;;;;4.18;100.00;102339.38;5284796;28;20039;-68
2022/12/27 11:18:16;;;;;;;;;;;;;;;4.24;100.00;102333.94;5289295;28;20437;-67
2022/12/27 11:20:50;;;;;;;;;;;;;;;4.30;100.00;102333.75;5289016;28;19922;-68
2022/12/27 11:23:22;;;;;;;;;;;;;;;4.36;100.00;102335.38;5287329;28;19936;-67
2022/12/27 11:25:55;;;;;;;;;;;;;;;4.41;100.00;102333.50;5283182;28;19916;-67
2022/12/27 11:28:36;;;;;;;;;;;;;;;4.46;100.00;102322.78;5292894;28;19923;-68
2022/12/27 11:31:09;;;;;;;;;;;;;;;4.53;100.00;102324.38;5295808;28;21766;-67
2022/12/27 11:33:44;;;;;;;;;;;;;;;4.60;100.00;102333.88;5290426;28;19919;-67
2022/12/27 11:36:22;;;;;;;;;;;;;;;4.66;100.00;102333.69;5277635;28;19981;-66
2022/12/27 11:38:54;;;;;;;;;;;;;;;4.71;100.00;102336.19;5281869;28;20038;-66
2022/12/27 11:41:36;;;;;;;;;;;;;;;4.76;100.00;102323.72;5293206;28;19926;-67
2022/12/27 11:44:13;;;;;;;;;;;;;;;4.82;100.00;102333.25;5288303;28;19924;-66
2022/12/27 11:46:57;;;;;;;;;;;;;;;4.86;100.00;102334.91;5280883;28;19928;-66
2022/12/27 11:49:34;;;;;;;;;;;;;;;4.88;100.00;102325.16;5277772;28;20776;-66
2022/12/27 11:52:16;;;;;;;;;;;;;;;4.90;100.00;102324.19;5279031;28;19920;-66
2022/12/27 11:55:05;;;;;;;;;;;;;;;4.94;100.00;102318.81;5286198;28;19920;-67
2022/12/27 11:57:56;;;;;;;;;;;;;;;4.95;100.00;102317.88;5286372;28;19916;-66
2022/12/27 12:00:32;;;;;;;;;;;;;;;4.95;100.00;102315.25;5287837;28;19945;-66
2022/12/27 12:03:41;;;;;;;;;;;;;;;4.94;100.00;102324.97;5280517;28;20022;-66
2022/12/27 12:06:16;;;;;;;;;;;;;;;4.94;100.00;102308.22;5207501;28;19922;-66
2022/12/27 12:09:06;;;;;;;;;;;;;;;4.93;100.00;102312.66;5213279;28;19926;-67
2022/12/27 12:11:37;;;;;;;;;;;;;;;4.93;100.00;102306.47;5270263;28;19916;-66
2022/12/27 12:14:14;;;;;;;;;;;;;;;4.91;100.00;102303.91;5285800;28;19949;-66
2022/12/27 12:16:45;;;;;;;;;;;;;;;4.88;100.00;102296.91;5287515;28;20410;-66
2022/12/27 12:19:20;;;;;;;;;;;;;;;4.89;100.00;102295.16;5286479;28;20011;-67
2022/12/27 12:22:03;;;;;;;;;;;;;;;4.88;100.00;102288.97;5283667;28;19920;-67
2022/12/27 12:24:49;;;;;;;;;;;;;;;4.85;100.00;102281.16;5290610;28;19993;-67
2022/12/27 12:27:34;;;;;;;;;;;;;;;4.86;100.00;102288.16;5286335;28;19924;-66
2022/12/27 12:30:23;;;;;;;;;;;;;;;4.86;100.00;102298.75;5283972;28;19921;-67
2022/12/27 12:32:54;;;;;;;;;;;;;;;4.86;100.00;102298.75;5284664;28;19916;-67
2022/12/27 12:35:38;;;;;;;;;;;;;;;4.85;100.00;102297.03;5280369;28;19932;-66
2022/12/27 12:38:15;;;;;;;;;;;;;;;4.86;100.00;102290.81;5292714;28;19924;-66
2022/12/27 12:41:05;;;;;;;;;;;;;;;4.88;100.00;102283.69;5282430;28;19920;-66
2022/12/27 12:43:44;;;;;;;;;;;;;;;4.86;100.00;102274.94;5290268;28;19928;-67
2022/12/27 12:46:21;;;;;;;;;;;;;;;4.88;100.00;102269.59;5289467;28;19920;-67
2022/12/27 12:49:03;;;;;;;;;;;;;;;4.84;100.00;102274.13;5286634;28;20363;-67
2022/12/27 12:51:34;;;;;;;;;;;;;;;4.86;100.00;102267.00;5298023;28;19926;-67
2022/12/27 12:54:12;;;;;;;;;;;;;;;4.87;100.00;102252.88;5271638;28;20165;-67
2022/12/27 12:56:49;;;;;;;;;;;;;;;4.89;100.00;102245.78;5288180;28;20311;-67
2022/12/27 12:59:26;;;;;;;;;;;;;;;4.89;100.00;102245.78;5278910;28;19977;-67
2022/12/27 13:01:57;;;;;;;;;;;;;;;4.89;100.00;102232.53;5285593;28;19920;-66
2022/12/27 13:04:51;;;;;;;;;;;;;;;4.90;100.00;102234.25;5280324;28;20306;-67
2022/12/27 13:07:29;;;;;;;;;;;;;;;4.90;100.00;102223.69;5284930;28;19958;-67
2022/12/27 13:10:13;;;;;;;;;;;;;;;4.93;100.00;102222.75;5282877;28;19920;-67
2022/12/27 13:13:00;;;;;;;;;;;;;;;4.92;100.00;102218.34;5285585;28;19920;-67
2022/12/27 13:15:50;;;;;;;;;;;;;;;4.92;100.00;102213.06;5283444;28;20168;-67
2022/12/27 13:18:36;;;;;;;;;;;;;;;4.89;100.00;102208.75;5289484;28;19965;-67
2022/12/27 13:21:27;;;;;;;;;;;;;;;4.88;100.00;102207.00;5290780;28;20454;-67
2022/12/27 13:24:15;;;;;;;;;;;;;;;4.87;100.00;102213.22;5284504;28;19927;-67
2022/12/27 13:26:58;;;;;;;;;;;;;;;4.85;100.00;102208.88;5287496;28;20305;-67
2022/12/27 13:29:52;;;;;;;;;;;;;;;4.83;100.00;102214.22;5286575;28;19928;-67
2022/12/27 13:32:32;;;;;;;;;;;;;;;4.83;100.00;102210.69;5290470;28;20381;-67
2022/12/27 13:35:16;;;;;;;;;;;;;;;4.83;100.00;102208.94;5284153;28;20512;-67
2022/12/27 13:38:06;;;;;;;;;;;;;;;4.82;100.00;102193.13;5291691;28;19969;-67
2022/12/27 13:40:40;;;;;;;;;;;;;;;4.84;100.00;102188.63;5282869;28;20405;-67
2022/12/27 13:43:31;;;;;;;;;;;;;;;4.83;100.00;102179.84;5284997;28;20378;-67
2022/12/27 13:46:07;;;;;;;;;;;;;;;4.83;100.00;102174.56;5278885;28;20440;-67
2022/12/27 13:48:39;;;;;;;;;;;;;;;4.85;100.00;102170.09;5281172;28;19932;-67
2022/12/27 13:51:10;;;;;;;;;;;;;;;4.87;100.00;102165.63;5279996;28;19970;-67
2022/12/27 13:53:42;;;;;;;;;;;;;;;4.91;100.00;102161.94;5277728;28;19916;-67
2022/12/27 13:56:23;;;;;;;;;;;;;;;4.95;100.00;102161.84;5289261;28;19970;-67
2022/12/27 13:58:54;;;;;;;;;;;;;;;5.00;100.00;102149.34;5276464;28;19924;-67
2022/12/27 14:01:28;;;;;;;;;;;;;;;5.02;100.00;102147.50;5292331;28;19916;-67
2022/12/27 14:04:27;;;;;;;;;;;;;;;5.04;100.00;102145.69;5287382;28;20302;-67
2022/12/27 14:07:20;;;;;;;;;;;;;;;5.07;100.00;102153.53;5277341;28;20039;-67
2022/12/27 14:10:21;;;;;;;;;;;;;;;5.11;100.00;102152.50;5281428;28;19920;-67
2022/12/27 14:12:55;;;;;;;;;;;;;;;5.16;100.00;102152.34;5271614;28;20470;-67
2022/12/27 14:15:45;;;;;;;;;;;;;;;5.20;100.00;102152.22;5276899;28;20327;-67
2022/12/27 14:18:19;;;;;;;;;;;;;;;5.23;100.00;102145.94;5289810;28;19920;-67
2022/12/27 14:21:08;;;;;;;;;;;;;;;5.25;100.00;102141.47;5281331;28;19921;-67
2022/12/27 14:23:42;;;;;;;;;;;;;;;5.25;100.00;102152.94;5278397;28;19928;-66
2022/12/27 14:26:19;;;;;;;;;;;;;;;5.27;100.00;102135.22;5279397;28;19920;-67
2022/12/27 14:28:56;;;;;;;;;;;;;;;5.29;100.00;102141.31;5286910;28;20010;-67
2022/12/27 14:31:46;;;;;;;;;;;;;;;5.32;100.00;102140.34;5290572;28;19923;-67
2022/12/27 14:34:20;;;;;;;;;;;;;;;5.36;100.00;102146.41;5281222;28;19970;-67
2022/12/27 14:36:57;;;;;;;;;;;;;;;5.39;100.00;102139.22;5290198;28;19999;-67
2022/12/27 14:40:00;;;;;;;;;;;;;;;5.40;100.00;102130.38;5294592;28;20011;-67
2022/12/27 14:42:37;;;;;;;;;;;;;;;5.41;100.00;102128.59;5248129;28;19915;-67
2022/12/27 14:45:12;;;;;;;;;;;;;;;5.40;100.00;102127.72;5280604;28;20481;-67
2022/12/27 14:47:50;;;;;;;;;;;;;;;5.39;100.00;102131.28;5282146;28;19922;-66
2022/12/27 14:50:40;;;;;;;;;;;;;;;5.39;100.00;102138.34;5292080;28;19924;-67
2022/12/27 14:53:17;;;;;;;;;;;;;;;5.37;100.00;102137.53;5281722;28;20362;-67